Terminal Aerodrome Forecast
Issued by NWS Sioux Falls, SD

Home | Current Version | Previous Version | Graphics & Text | Print | Product List | Glossary On
Versions: 1 2 3 4 5 6 7 8 9 10 11 12 13 14 15 16 17 18 19 20 21 22 23 24 25 26
000
FTUS43 KFSD 211500 AAA
TAFFSD
TAF AMD
KFSD 211547Z 2116/2212 13010KT P6SM BKN015
      TEMPO 2116/2117 SCT015
     FM211700 15012KT P6SM SCT025
     FM211900 16014KT P6SM SCT040
     FM220500 22004KT P6SM SCT200
     FM221000 35010KT P6SM SKC=

USA.gov is the U.S. government's official web portal to all federal, state and local government web resources and services.